createdAt,value
2019-04-29T00:01:37.839Z,47.23
2019-04-29T00:04:07.838Z,46.07
2019-04-29T00:06:37.821Z,46.33
2019-04-29T00:09:11.470Z,45.50
2019-04-29T00:11:41.545Z,46.40
2019-04-29T00:14:11.513Z,46.03
2019-04-29T00:16:47.099Z,46.60
2019-04-29T00:19:41.683Z,46.03
2019-04-29T00:22:11.757Z,46.77
2019-04-29T00:24:41.647Z,46.87
2019-04-29T00:27:11.512Z,46.63
2019-04-29T00:29:41.711Z,46.70
2019-04-29T00:32:11.870Z,46.43
2019-04-29T00:34:41.802Z,46.20
2019-04-29T00:37:35.266Z,46.73
2019-04-29T00:40:37.437Z,46.63
2019-04-29T00:43:35.530Z,45.53
2019-04-29T00:46:06.366Z,46.40
2019-04-29T00:48:36.156Z,46.07
2019-04-29T00:51:06.033Z,45.83
2019-04-29T00:53:36.121Z,45.87
2019-04-29T00:56:06.492Z,45.80
2019-04-29T00:58:37.297Z,45.77
2019-04-29T01:01:11.552Z,46.13
2019-04-29T01:03:43.434Z,46.03
2019-04-29T01:06:13.167Z,45.47
2019-04-29T01:08:43.099Z,45.67
2019-04-29T01:11:12.988Z,45.43
2019-04-29T01:13:42.711Z,45.30
2019-04-29T01:16:12.456Z,45.67
2019-04-29T01:18:42.232Z,46.13
2019-04-29T01:21:12.048Z,45.47
2019-04-29T01:23:41.922Z,45.67
2019-04-29T01:26:37.417Z,45.70
2019-04-29T01:29:07.981Z,44.93
2019-04-29T01:31:37.835Z,45.43
2019-04-29T01:34:13.246Z,46.27
2019-04-29T01:36:44.486Z,45.93
2019-04-29T01:39:15.603Z,46.40
2019-04-29T01:42:13.512Z,45.40
2019-04-29T01:44:43.228Z,45.63
2019-04-29T01:47:13.158Z,45.93
2019-04-29T01:49:43.066Z,46.67
2019-04-29T01:52:12.809Z,45.87
2019-04-29T01:54:42.666Z,46.77
2019-04-29T01:57:12.557Z,45.67
2019-04-29T01:59:43.307Z,47.03
2019-04-29T02:02:13.195Z,46.27
2019-04-29T02:04:42.902Z,45.80
2019-04-29T02:07:12.774Z,45.93
2019-04-29T02:09:52.092Z,45.73
2019-04-29T02:12:23.453Z,45.27
2019-04-29T02:14:53.193Z,46.23
2019-04-29T02:17:22.936Z,45.63
2019-04-29T02:19:52.644Z,45.93
2019-04-29T02:22:37.334Z,45.40
2019-04-29T02:25:15.686Z,46.27
2019-04-29T02:27:46.483Z,46.03
2019-04-29T02:30:43.642Z,46.30
2019-04-29T02:33:13.712Z,46.07
2019-04-29T02:35:43.655Z,45.83
2019-04-29T02:38:21.801Z,45.83
2019-04-29T02:41:03.207Z,45.77
2019-04-29T02:43:34.736Z,45.53
2019-04-29T02:46:04.601Z,46.33
2019-04-29T02:48:35.073Z,45.00
2019-04-29T02:51:05.100Z,44.97
2019-04-29T02:53:34.911Z,45.10
2019-04-29T02:56:04.733Z,45.07
2019-04-29T02:58:46.107Z,45.47
2019-04-29T03:01:24.264Z,45.40
2019-04-29T03:04:12.367Z,45.40
2019-04-29T03:06:43.308Z,45.93
2019-04-29T03:09:13.105Z,46.13
2019-04-29T03:11:42.938Z,45.20
2019-04-29T03:14:12.792Z,45.57
2019-04-29T03:16:42.580Z,44.83
2019-04-29T03:19:18.783Z,46.03
2019-04-29T03:21:54.395Z,45.67
2019-04-29T03:24:24.445Z,46.20
2019-04-29T03:26:54.369Z,45.17
2019-04-29T03:29:24.100Z,45.07
2019-04-29T03:31:55.755Z,44.63
2019-04-29T03:34:25.558Z,45.33
2019-04-29T03:36:55.772Z,46.17
2019-04-29T03:39:25.484Z,46.20
2019-04-29T03:41:55.313Z,46.20
2019-04-29T03:44:25.172Z,45.50
2019-04-29T03:46:55.055Z,46.23
2019-04-29T03:49:24.890Z,44.80
2019-04-29T03:51:54.614Z,46.10
2019-04-29T03:54:24.364Z,45.90
2019-04-29T03:56:54.087Z,45.50
2019-04-29T03:59:23.848Z,45.63
2019-04-29T04:02:12.840Z,45.87
2019-04-29T04:05:10.833Z,45.27
2019-04-29T04:07:46.103Z,45.47
2019-04-29T04:10:19.370Z,45.43
2019-04-29T04:12:50.154Z,45.10
2019-04-29T04:15:20.029Z,45.77
2019-04-29T04:17:56.609Z,46.03
2019-04-29T04:20:26.764Z,45.53
2019-04-29T04:22:56.693Z,44.70
2019-04-29T04:25:26.571Z,45.93
2019-04-29T04:27:56.353Z,45.97
2019-04-29T04:30:26.147Z,45.70
2019-04-29T04:32:55.964Z,45.47
2019-04-29T04:35:25.745Z,46.30
2019-04-29T04:37:55.449Z,45.97
2019-04-29T04:40:31.629Z,46.60
2019-04-29T04:43:01.537Z,46.17
2019-04-29T04:45:31.386Z,46.70
2019-04-29T04:48:01.205Z,45.70
2019-04-29T04:50:30.993Z,46.17
2019-04-29T04:53:00.789Z,45.90
2019-04-29T04:55:32.855Z,46.50
2019-04-29T04:58:02.746Z,46.20
2019-04-29T05:00:35.329Z,45.70
2019-04-29T05:03:05.104Z,46.50
2019-04-29T05:05:34.887Z,46.10
2019-04-29T05:08:04.695Z,46.33
2019-04-29T05:10:34.407Z,45.63
2019-04-29T05:13:04.327Z,46.20
2019-04-29T05:15:34.136Z,46.80
2019-04-29T05:18:04.094Z,50.07
2019-04-29T05:20:33.864Z,46.97
2019-04-29T05:23:04.121Z,46.27
2019-04-29T05:25:34.730Z,46.83
2019-04-29T05:28:05.812Z,46.83
2019-04-29T05:30:35.511Z,46.13
2019-04-29T05:33:05.302Z,46.43
2019-04-29T05:35:44.223Z,46.90
2019-04-29T05:38:38.894Z,46.50
2019-04-29T05:41:08.601Z,47.23
2019-04-29T05:44:12.418Z,47.37
2019-04-29T05:46:54.832Z,47.43
2019-04-29T05:49:29.717Z,46.53
2019-04-29T05:52:18.115Z,46.97
2019-04-29T05:55:02.730Z,48.27
2019-04-29T05:57:32.499Z,47.07
2019-04-29T06:00:02.468Z,46.53
2019-04-29T06:02:36.360Z,47.50
2019-04-29T06:05:04.330Z,47.00
2019-04-29T06:07:34.035Z,46.77
2019-04-29T06:10:04.383Z,47.90
2019-04-29T06:12:34.085Z,47.87
2019-04-29T06:15:04.269Z,48.10
2019-04-29T06:17:34.007Z,48.10
2019-04-29T06:20:04.255Z,47.93
2019-04-29T06:22:37.766Z,48.97
2019-04-29T06:25:06.250Z,50.17
2019-04-29T06:27:36.017Z,48.47
2019-04-29T06:30:06.719Z,48.43
2019-04-29T06:32:36.443Z,48.40
2019-04-29T06:35:10.593Z,48.33
2019-04-29T06:37:39.282Z,48.73
2019-04-29T06:40:09.781Z,49.40
2019-04-29T06:42:39.518Z,48.63
2019-04-29T06:45:09.430Z,49.27
2019-04-29T06:47:39.219Z,48.43
2019-04-29T06:50:09.423Z,49.60
2019-04-29T06:52:39.231Z,48.33
2019-04-29T06:55:09.075Z,49.20
2019-04-29T06:57:38.905Z,48.30
2019-04-29T07:00:09.348Z,48.53
2019-04-29T07:02:39.085Z,49.03
2019-04-29T07:05:08.980Z,50.23
2019-04-29T07:07:38.792Z,49.70
2019-04-29T07:10:08.995Z,48.43
2019-04-29T07:12:42.650Z,49.43
2019-04-29T07:15:13.880Z,48.83
2019-04-29T07:17:43.952Z,49.63
2019-04-29T07:20:14.025Z,50.20
2019-04-29T07:22:43.873Z,50.17
2019-04-29T07:25:13.628Z,50.43
2019-04-29T07:27:44.614Z,50.73
2019-04-29T07:30:14.739Z,50.13
2019-04-29T07:32:47.155Z,49.53
2019-04-29T07:35:16.076Z,50.87
2019-04-29T07:37:45.793Z,49.27
2019-04-29T07:40:16.088Z,49.03
2019-04-29T07:42:45.889Z,49.60
2019-04-29T07:45:29.199Z,50.33
2019-04-29T07:48:01.791Z,50.70
2019-04-29T07:50:30.826Z,49.30
2019-04-29T07:53:00.555Z,50.10
2019-04-29T07:55:31.388Z,51.83
2019-04-29T07:58:02.283Z,52.83
2019-04-29T08:00:34.711Z,51.87
2019-04-29T08:03:07.970Z,52.53
2019-04-29T08:05:37.793Z,52.50
2019-04-29T08:08:07.672Z,51.93
2019-04-29T08:10:51.481Z,51.67
2019-04-29T08:13:10.563Z,52.07
2019-04-29T08:15:41.591Z,51.00
2019-04-29T08:18:16.337Z,52.30
2019-04-29T08:24:30.623Z,51.13
2019-04-29T08:27:00.443Z,51.03
2019-04-29T08:29:30.891Z,51.27
2019-04-29T08:32:02.556Z,51.80
2019-04-29T08:34:32.502Z,52.43
2019-04-29T08:37:02.388Z,51.47
2019-04-29T08:39:32.125Z,51.43
2019-04-29T08:42:08.839Z,52.07
2019-04-29T08:44:46.997Z,50.97
2019-04-29T08:47:30.490Z,53.17
2019-04-29T08:49:55.657Z,52.83
2019-04-29T08:52:25.412Z,53.97
2019-04-29T08:55:30.471Z,53.33
2019-04-29T08:57:57.806Z,52.43
2019-04-29T09:00:27.862Z,52.60
2019-04-29T09:02:57.609Z,52.60
2019-04-29T09:05:27.431Z,52.33
2019-04-29T09:07:59.034Z,52.13
2019-04-29T09:10:33.059Z,51.60
2019-04-29T09:13:00.413Z,51.30
2019-04-29T09:15:39.070Z,51.20
2019-04-29T09:18:11.141Z,51.67
2019-04-29T09:20:40.349Z,51.03
2019-04-29T09:23:12.781Z,51.47
2019-04-29T09:26:01.948Z,51.10
2019-04-29T09:28:27.795Z,51.13
2019-04-29T09:30:54.347Z,51.57
2019-04-29T09:33:24.157Z,51.73
2019-04-29T09:35:53.870Z,50.57
2019-04-29T09:38:23.659Z,50.77
2019-04-29T09:40:59.790Z,50.90
2019-04-29T09:43:39.060Z,50.87
2019-04-29T09:46:19.627Z,50.67
2019-04-29T09:48:49.387Z,50.87
2019-04-29T09:51:22.807Z,50.97
2019-04-29T09:53:52.295Z,50.70
2019-04-29T09:56:22.311Z,51.03
2019-04-29T09:59:11.372Z,50.97
2019-04-29T10:01:50.476Z,50.97
2019-04-29T10:04:32.147Z,51.20
2019-04-29T10:07:02.053Z,50.97
2019-04-29T10:09:31.932Z,51.50
2019-04-29T10:12:01.670Z,52.20
2019-04-29T10:14:43.355Z,51.80
2019-04-29T10:17:21.415Z,51.00
2019-04-29T10:20:10.335Z,51.90
2019-04-29T10:22:40.236Z,51.73
2019-04-29T10:25:10.593Z,51.70
2019-04-29T10:27:40.404Z,51.13
2019-04-29T10:30:10.633Z,51.53
2019-04-29T10:32:42.364Z,51.13
2019-04-29T10:35:12.339Z,51.47
2019-04-29T10:37:42.137Z,51.50
2019-04-29T10:40:25.680Z,50.63
2019-04-29T10:43:26.873Z,50.33
2019-04-29T10:46:38.740Z,50.67
2019-04-29T10:49:15.351Z,51.30
2019-04-29T10:51:45.305Z,51.53
2019-04-29T10:54:15.249Z,51.17
2019-04-29T10:56:45.439Z,51.60
2019-04-29T10:59:15.171Z,51.23
2019-04-29T11:02:49.250Z,51.20
2019-04-29T11:05:37.586Z,50.63
2019-04-29T11:08:20.251Z,50.77
2019-04-29T11:10:50.069Z,51.50
2019-04-29T11:13:19.986Z,50.53
2019-04-29T11:15:51.276Z,52.03
2019-04-29T11:18:23.165Z,51.67
2019-04-29T11:20:54.072Z,51.40
2019-04-29T11:23:33.666Z,51.47
2019-04-29T11:26:21.115Z,52.50
2019-04-29T11:28:52.783Z,53.23
2019-04-29T11:31:22.586Z,51.53
2019-04-29T11:34:05.368Z,50.97
2019-04-29T11:36:34.947Z,51.27
2019-04-29T11:39:09.028Z,51.13
2019-04-29T11:41:39.426Z,51.50
2019-04-29T11:44:09.195Z,51.67
2019-04-29T11:46:38.975Z,51.73
2019-04-29T11:49:08.789Z,51.50
2019-04-29T11:52:07.880Z,51.33
2019-04-29T11:54:18.004Z,51.13
2019-04-29T11:56:46.418Z,51.37
2019-04-29T11:59:34.763Z,51.30
2019-04-29T12:02:45.494Z,51.23
2019-04-29T12:05:15.649Z,51.20
2019-04-29T12:07:45.507Z,50.70
2019-04-29T12:10:15.433Z,51.07
2019-04-29T12:12:47.727Z,50.40
2019-04-29T12:15:24.532Z,50.67
2019-04-29T12:18:02.277Z,50.83
2019-04-29T12:20:41.362Z,52.40
2019-04-29T12:23:15.704Z,51.60
2019-04-29T12:25:43.815Z,52.17
2019-04-29T12:28:19.189Z,51.13
2019-04-29T12:30:47.140Z,52.00
2019-04-29T12:33:23.033Z,51.37
2019-04-29T12:35:58.676Z,52.23
2019-04-29T12:38:49.660Z,51.13
2019-04-29T12:41:48.151Z,51.60
2019-04-29T12:44:34.650Z,52.03
2019-04-29T12:47:10.495Z,51.07
2019-04-29T12:49:42.444Z,51.90
2019-04-29T12:52:11.830Z,50.93
2019-04-29T12:54:41.992Z,50.97
2019-04-29T12:57:12.946Z,51.20
2019-04-29T12:59:42.707Z,51.27
2019-04-29T13:02:26.369Z,51.40
2019-04-29T13:05:09.533Z,50.50
2019-04-29T13:07:53.076Z,51.20
2019-04-29T13:10:45.632Z,50.90
2019-04-29T13:13:19.529Z,50.90
2019-04-29T13:15:57.939Z,51.40
2019-04-29T13:19:04.424Z,50.63
2019-04-29T13:21:27.750Z,51.37
2019-04-29T13:24:12.746Z,51.20
2019-04-29T13:26:33.213Z,51.20
2019-04-29T13:29:01.638Z,51.13
2019-04-29T13:33:22.278Z,51.27
2019-04-29T13:34:22.375Z,51.23
2019-04-29T13:36:36.663Z,50.90
2019-04-29T13:39:08.947Z,51.20
2019-04-29T13:41:56.411Z,50.67
2019-04-29T13:44:11.046Z,50.23
2019-04-29T13:47:15.324Z,50.77
2019-04-29T13:49:56.363Z,51.60
2019-04-29T13:52:26.163Z,50.23
2019-04-29T13:58:22.242Z,51.37
2019-04-29T14:01:00.035Z,50.77
2019-04-29T14:03:49.542Z,50.60
2019-04-29T14:06:19.996Z,50.73
2019-04-29T14:08:49.934Z,50.83
2019-04-29T14:11:21.991Z,50.20
2019-04-29T14:13:51.360Z,50.40
2019-04-29T14:16:21.257Z,50.27
2019-04-29T14:18:51.059Z,50.80
2019-04-29T14:21:20.927Z,50.07
2019-04-29T14:23:50.607Z,50.37
2019-04-29T14:26:20.376Z,51.00
2019-04-29T14:28:50.152Z,50.40
2019-04-29T14:31:22.689Z,50.87
2019-04-29T14:34:00.399Z,50.73
2019-04-29T14:36:30.952Z,51.20
2019-04-29T14:39:00.771Z,50.17
2019-04-29T14:41:34.135Z,51.03
2019-04-29T14:44:30.319Z,50.27
2019-04-29T14:47:07.498Z,50.07
2019-04-29T14:49:42.137Z,50.83
2019-04-29T14:52:13.249Z,51.07
2019-04-29T14:54:43.653Z,51.07
2019-04-29T14:57:13.467Z,50.50
2019-04-29T14:59:43.412Z,52.33
2019-04-29T15:02:20.496Z,52.53
2019-04-29T15:04:50.471Z,51.17
2019-04-29T15:07:20.301Z,51.43
2019-04-29T15:09:55.933Z,51.33
2019-04-29T15:12:32.637Z,50.07
2019-04-29T15:15:21.474Z,51.03
2019-04-29T15:17:55.833Z,50.33
2019-04-29T15:20:35.539Z,50.40
2019-04-29T15:23:05.571Z,50.87
2019-04-29T15:25:35.332Z,51.70
2019-04-29T15:28:05.222Z,50.57
2019-04-29T15:30:36.736Z,51.97
2019-04-29T15:33:06.503Z,51.37
2019-04-29T15:35:36.190Z,51.07
2019-04-29T15:38:06.090Z,50.77
2019-04-29T15:40:42.770Z,52.10
2019-04-29T15:43:45.650Z,51.50
2019-04-29T15:45:59.077Z,51.20
2019-04-29T15:48:28.835Z,51.23
2019-04-29T15:50:58.660Z,52.07
2019-04-29T15:53:28.519Z,52.20
2019-04-29T15:56:06.665Z,52.23
2019-04-29T15:58:30.916Z,51.70
2019-04-29T16:01:13.012Z,51.53
2019-04-29T16:03:37.086Z,52.67
2019-04-29T16:06:22.263Z,52.23
2019-04-29T16:09:00.619Z,52.13
2019-04-29T16:11:49.752Z,51.63
2019-04-29T16:14:22.241Z,52.40
2019-04-29T16:16:52.046Z,51.83
2019-04-29T16:19:21.825Z,51.43
2019-04-29T16:21:51.734Z,53.10
2019-04-29T16:24:26.787Z,52.23
2019-04-29T16:26:53.893Z,52.13
2019-04-29T16:29:23.872Z,53.07
2019-04-29T16:31:55.143Z,53.70
2019-04-29T16:34:25.379Z,52.27
2019-04-29T16:36:55.117Z,53.03
2019-04-29T16:39:25.238Z,52.23
2019-04-29T16:42:12.799Z,52.23
2019-04-29T16:44:44.340Z,52.10
2019-04-29T16:47:15.684Z,52.00
2019-04-29T16:49:45.725Z,52.40
2019-04-29T16:52:15.547Z,51.23
2019-04-29T16:54:45.518Z,55.07
2019-04-29T16:57:15.623Z,52.23
2019-04-29T16:59:45.665Z,52.27
2019-04-29T17:02:19.343Z,51.40
2019-04-29T17:04:47.206Z,50.83
2019-04-29T17:07:17.898Z,51.87
2019-04-29T17:10:06.115Z,50.77
2019-04-29T17:12:41.291Z,51.47
2019-04-29T17:15:24.365Z,52.50
2019-04-29T17:17:42.887Z,52.43
2019-04-29T17:20:14.004Z,52.70
2019-04-29T17:22:44.817Z,50.50
2019-04-29T17:25:16.755Z,53.27
2019-04-29T17:27:53.831Z,51.73
2019-04-29T17:30:46.505Z,51.13
2019-04-29T17:33:26.337Z,51.23
2019-04-29T17:35:53.725Z,52.27
2019-04-29T17:38:24.486Z,50.60
2019-04-29T17:40:54.229Z,51.03
2019-04-29T17:43:43.105Z,51.23
2019-04-29T17:46:37.060Z,51.13
2019-04-29T17:49:18.299Z,50.83
2019-04-29T17:51:48.329Z,51.20
2019-04-29T17:54:25.483Z,51.77
2019-04-29T17:57:25.431Z,51.87
2019-04-29T18:00:08.304Z,51.73
2019-04-29T18:02:57.274Z,51.17
2019-04-29T18:05:34.609Z,51.57
2019-04-29T18:08:09.783Z,50.60
2019-04-29T18:10:42.931Z,51.20
2019-04-29T18:13:18.756Z,51.63
2019-04-29T18:15:58.673Z,53.43
2019-04-29T18:18:24.375Z,50.93
2019-04-29T18:21:09.199Z,51.17
2019-04-29T18:23:56.789Z,52.13
2019-04-29T18:26:52.933Z,50.67
2019-04-29T18:29:25.787Z,50.73
2019-04-29T18:31:55.730Z,51.30
2019-04-29T18:34:29.322Z,50.90
2019-04-29T18:37:00.392Z,50.30
2019-04-29T18:39:31.366Z,50.60
2019-04-29T18:42:03.175Z,50.77
2019-04-29T18:44:32.256Z,51.03
2019-04-29T18:47:02.270Z,51.10
2019-04-29T18:49:47.312Z,50.60
2019-04-29T18:52:25.987Z,51.20
2019-04-29T18:54:50.881Z,51.27
2019-04-29T18:57:28.693Z,50.23
2019-04-29T18:59:52.309Z,51.10
2019-04-29T19:02:22.169Z,51.20
2019-04-29T19:05:10.183Z,50.83
2019-04-29T19:07:40.337Z,51.83
2019-04-29T19:10:14.373Z,49.57
2019-04-29T19:12:42.802Z,50.07
2019-04-29T19:15:15.096Z,51.17
2019-04-29T19:17:58.465Z,50.03
2019-04-29T19:20:18.678Z,51.30
2019-04-29T19:22:48.807Z,51.37
2019-04-29T19:25:18.979Z,51.00
2019-04-29T19:27:51.569Z,50.80
2019-04-29T19:30:27.004Z,50.53
2019-04-29T19:33:00.287Z,50.77
2019-04-29T19:35:29.469Z,50.53
2019-04-29T19:37:57.570Z,51.17
2019-04-29T19:40:30.638Z,52.07
2019-04-29T19:42:59.175Z,50.53
2019-04-29T19:45:30.431Z,50.50
2019-04-29T19:48:00.252Z,51.37
2019-04-29T19:50:30.074Z,51.20
2019-04-29T19:53:00.660Z,50.77
2019-04-29T19:55:33.330Z,50.83
2019-04-29T19:58:03.423Z,50.93
2019-04-29T20:00:38.335Z,51.47
2019-04-29T20:03:20.366Z,51.07
2019-04-29T20:05:46.895Z,52.13
2019-04-29T20:08:37.611Z,54.20
2019-04-29T20:10:51.592Z,50.70
2019-04-29T20:13:31.406Z,50.80
2019-04-29T20:16:13.765Z,51.40
2019-04-29T20:19:00.945Z,51.13
2019-04-29T20:21:29.427Z,49.83
2019-04-29T20:23:59.565Z,51.70
2019-04-29T20:26:38.873Z,50.70
2019-04-29T20:29:08.803Z,51.03
2019-04-29T20:31:43.500Z,50.77
2019-04-29T20:34:10.610Z,50.87
2019-04-29T20:36:42.845Z,51.20
2019-04-29T20:39:16.958Z,51.17
2019-04-29T20:41:48.720Z,51.50
2019-04-29T20:44:17.277Z,51.57
2019-04-29T20:47:16.507Z,51.10
2019-04-29T20:49:30.823Z,51.03
2019-04-29T20:52:20.353Z,52.60
2019-04-29T20:54:52.667Z,50.90
2019-04-29T20:57:21.733Z,51.03
2019-04-29T20:59:50.544Z,51.73
2019-04-29T21:02:31.357Z,50.87
2019-04-29T21:04:52.196Z,52.47
2019-04-29T21:07:25.528Z,51.43
2019-04-29T21:09:55.889Z,51.50
2019-04-29T21:12:45.808Z,50.30
2019-04-29T21:15:21.270Z,51.00
2019-04-29T21:17:51.110Z,51.60
2019-04-29T21:20:20.830Z,51.20
2019-04-29T21:22:52.561Z,51.63
2019-04-29T21:25:24.663Z,51.80
2019-04-29T21:27:58.220Z,52.13
2019-04-29T21:30:34.982Z,50.77
2019-04-29T21:32:56.939Z,51.90
2019-04-29T21:35:45.465Z,51.23
2019-04-29T21:38:35.462Z,51.10
2019-04-29T21:41:10.094Z,51.77
2019-04-29T21:43:41.292Z,51.50
2019-04-29T21:46:11.100Z,50.63
2019-04-29T21:48:40.894Z,51.13
2019-04-29T21:51:11.230Z,50.50
2019-04-29T21:53:42.464Z,50.73
2019-04-29T21:56:12.290Z,51.03
2019-04-29T21:58:42.194Z,51.97
2019-04-29T22:01:12.605Z,51.37
2019-04-29T22:03:42.884Z,51.27
2019-04-29T22:06:12.733Z,52.83
2019-04-29T22:08:42.706Z,51.80
2019-04-29T22:11:12.516Z,50.67
2019-04-29T22:13:42.479Z,52.10
2019-04-29T22:16:15.739Z,52.37
2019-04-29T22:18:44.682Z,53.20
2019-04-29T22:21:21.875Z,51.07
2019-04-29T22:23:51.200Z,51.47
2019-04-29T22:26:23.446Z,52.57
2019-04-29T22:28:53.387Z,52.57
2019-04-29T22:31:21.473Z,52.63
2019-04-29T22:33:51.440Z,51.93
2019-04-29T22:36:21.197Z,53.73
2019-04-29T22:38:52.123Z,52.63
2019-04-29T22:41:34.364Z,53.20
2019-04-29T22:44:06.779Z,52.00
2019-04-29T22:46:39.997Z,52.53
2019-04-29T22:49:08.064Z,52.23
2019-04-29T22:51:37.932Z,52.53
2019-04-29T22:54:07.825Z,53.50
2019-04-29T22:56:40.436Z,52.93
2019-04-29T22:59:09.185Z,52.17
2019-04-29T23:01:42.279Z,52.10
2019-04-29T23:04:14.533Z,52.20
2019-04-29T23:06:46.616Z,52.77
2019-04-29T23:09:13.408Z,52.17
2019-04-29T23:11:43.212Z,52.20
2019-04-29T23:14:13.069Z,52.17
2019-04-29T23:16:42.999Z,53.70
2019-04-29T23:19:17.714Z,52.07
2019-04-29T23:22:05.958Z,51.07
2019-04-29T23:24:57.248Z,51.83
2019-04-29T23:27:26.973Z,52.03
2019-04-29T23:29:56.727Z,52.60
2019-04-29T23:32:26.551Z,52.50
2019-04-29T23:34:57.281Z,52.43
2019-04-29T23:37:29.473Z,53.23
2019-04-29T23:39:59.594Z,52.73
2019-04-29T23:42:29.345Z,51.90
2019-04-29T23:44:59.083Z,52.53
2019-04-29T23:47:28.881Z,52.93
2019-04-29T23:49:58.661Z,52.43
2019-04-29T23:52:28.488Z,52.83
2019-04-29T23:54:58.319Z,51.83
2019-04-29T23:57:43.532Z,51.73
